sensor_id;sensor_type;location;lat;lon;timestamp;P1;durP1;ratioP1;P2;durP2;ratioP2
80852;SDS011;70270;43.434;28.338;2023-12-20T00:02:19;63.10;;;37.20;;
80852;SDS011;70270;43.434;28.338;2023-12-20T00:05:04;49.15;;;31.38;;
80852;SDS011;70270;43.434;28.338;2023-12-20T00:07:48;59.20;;;35.03;;
80852;SDS011;70270;43.434;28.338;2023-12-20T00:10:33;51.95;;;33.35;;
80852;SDS011;70270;43.434;28.338;2023-12-20T00:13:17;70.15;;;40.35;;
80852;SDS011;70270;43.434;28.338;2023-12-20T00:16:02;70.07;;;41.58;;
80852;SDS011;70270;43.434;28.338;2023-12-20T00:18:46;57.28;;;34.83;;
80852;SDS011;70270;43.434;28.338;2023-12-20T00:21:31;64.20;;;40.38;;
80852;SDS011;70270;43.434;28.338;2023-12-20T00:24:15;55.20;;;35.20;;
80852;SDS011;70270;43.434;28.338;2023-12-20T00:27:00;51.97;;;32.85;;
80852;SDS011;70270;43.434;28.338;2023-12-20T00:29:45;52.60;;;34.00;;
80852;SDS011;70270;43.434;28.338;2023-12-20T00:32:34;53.35;;;34.78;;
80852;SDS011;70270;43.434;28.338;2023-12-20T00:35:19;49.78;;;33.80;;
80852;SDS011;70270;43.434;28.338;2023-12-20T00:38:04;52.25;;;33.20;;
80852;SDS011;70270;43.434;28.338;2023-12-20T00:40:49;55.85;;;33.40;;
80852;SDS011;70270;43.434;28.338;2023-12-20T00:43:34;50.35;;;35.38;;
80852;SDS011;70270;43.434;28.338;2023-12-20T00:46:18;52.95;;;35.25;;
80852;SDS011;70270;43.434;28.338;2023-12-20T00:49:03;51.67;;;32.85;;
80852;SDS011;70270;43.434;28.338;2023-12-20T00:51:48;49.75;;;32.53;;
80852;SDS011;70270;43.434;28.338;2023-12-20T00:54:34;44.95;;;30.67;;
80852;SDS011;70270;43.434;28.338;2023-12-20T00:57:18;51.28;;;34.70;;
80852;SDS011;70270;43.434;28.338;2023-12-20T01:00:03;48.67;;;30.25;;
80852;SDS011;70270;43.434;28.338;2023-12-20T01:02:48;49.13;;;32.85;;
80852;SDS011;70270;43.434;28.338;2023-12-20T01:05:34;46.05;;;29.30;;
80852;SDS011;70270;43.434;28.338;2023-12-20T01:08:18;42.33;;;28.33;;
80852;SDS011;70270;43.434;28.338;2023-12-20T01:11:06;46.92;;;28.10;;
80852;SDS011;70270;43.434;28.338;2023-12-20T01:13:50;46.88;;;30.27;;
80852;SDS011;70270;43.434;28.338;2023-12-20T01:16:35;49.15;;;30.75;;
80852;SDS011;70270;43.434;28.338;2023-12-20T01:19:19;49.53;;;32.25;;
80852;SDS011;70270;43.434;28.338;2023-12-20T01:22:04;54.17;;;33.35;;
80852;SDS011;70270;43.434;28.338;2023-12-20T01:24:48;47.67;;;33.25;;
80852;SDS011;70270;43.434;28.338;2023-12-20T01:27:33;47.38;;;32.35;;
80852;SDS011;70270;43.434;28.338;2023-12-20T01:30:17;46.03;;;31.00;;
80852;SDS011;70270;43.434;28.338;2023-12-20T01:33:01;39.92;;;27.55;;
80852;SDS011;70270;43.434;28.338;2023-12-20T01:35:47;47.70;;;29.23;;
80852;SDS011;70270;43.434;28.338;2023-12-20T01:38:31;46.20;;;28.13;;
80852;SDS011;70270;43.434;28.338;2023-12-20T01:41:16;44.95;;;28.75;;
80852;SDS011;70270;43.434;28.338;2023-12-20T01:44:00;41.33;;;26.35;;
80852;SDS011;70270;43.434;28.338;2023-12-20T01:46:45;43.15;;;26.70;;
80852;SDS011;70270;43.434;28.338;2023-12-20T01:49:30;44.33;;;26.02;;
80852;SDS011;70270;43.434;28.338;2023-12-20T01:52:15;42.35;;;28.15;;
80852;SDS011;70270;43.434;28.338;2023-12-20T01:55:01;43.22;;;27.48;;
80852;SDS011;70270;43.434;28.338;2023-12-20T01:57:48;39.03;;;25.65;;
80852;SDS011;70270;43.434;28.338;2023-12-20T02:00:33;44.65;;;29.48;;
80852;SDS011;70270;43.434;28.338;2023-12-20T02:03:18;45.67;;;27.13;;
80852;SDS011;70270;43.434;28.338;2023-12-20T02:06:04;40.63;;;27.20;;
80852;SDS011;70270;43.434;28.338;2023-12-20T02:08:49;49.20;;;28.63;;
80852;SDS011;70270;43.434;28.338;2023-12-20T02:11:34;43.35;;;27.23;;
80852;SDS011;70270;43.434;28.338;2023-12-20T02:14:20;47.90;;;29.70;;
80852;SDS011;70270;43.434;28.338;2023-12-20T02:17:04;46.63;;;28.42;;
80852;SDS011;70270;43.434;28.338;2023-12-20T02:19:49;48.47;;;29.40;;
80852;SDS011;70270;43.434;28.338;2023-12-20T02:22:34;44.60;;;27.85;;
80852;SDS011;70270;43.434;28.338;2023-12-20T02:25:18;43.53;;;27.48;;
80852;SDS011;70270;43.434;28.338;2023-12-20T02:28:03;42.00;;;26.85;;
80852;SDS011;70270;43.434;28.338;2023-12-20T02:30:49;42.00;;;24.67;;
80852;SDS011;70270;43.434;28.338;2023-12-20T02:33:33;42.97;;;25.27;;
80852;SDS011;70270;43.434;28.338;2023-12-20T02:36:18;40.17;;;23.45;;
80852;SDS011;70270;43.434;28.338;2023-12-20T02:39:02;34.50;;;23.20;;
80852;SDS011;70270;43.434;28.338;2023-12-20T02:41:48;43.25;;;25.08;;
80852;SDS011;70270;43.434;28.338;2023-12-20T02:44:32;33.80;;;23.83;;
80852;SDS011;70270;43.434;28.338;2023-12-20T02:47:17;39.58;;;23.52;;
80852;SDS011;70270;43.434;28.338;2023-12-20T02:50:01;38.53;;;22.75;;
80852;SDS011;70270;43.434;28.338;2023-12-20T02:52:45;37.45;;;24.17;;
80852;SDS011;70270;43.434;28.338;2023-12-20T02:55:30;39.45;;;24.83;;
80852;SDS011;70270;43.434;28.338;2023-12-20T02:58:14;39.90;;;23.52;;
80852;SDS011;70270;43.434;28.338;2023-12-20T03:00:59;42.30;;;25.85;;
80852;SDS011;70270;43.434;28.338;2023-12-20T03:03:43;42.88;;;25.05;;
80852;SDS011;70270;43.434;28.338;2023-12-20T03:06:28;45.13;;;26.83;;
80852;SDS011;70270;43.434;28.338;2023-12-20T03:09:12;40.03;;;24.38;;
80852;SDS011;70270;43.434;28.338;2023-12-20T03:11:57;39.88;;;24.20;;
80852;SDS011;70270;43.434;28.338;2023-12-20T03:14:43;33.72;;;22.17;;
80852;SDS011;70270;43.434;28.338;2023-12-20T03:17:28;41.15;;;24.58;;
80852;SDS011;70270;43.434;28.338;2023-12-20T03:20:12;29.58;;;20.00;;
80852;SDS011;70270;43.434;28.338;2023-12-20T03:22:57;31.75;;;21.17;;
80852;SDS011;70270;43.434;28.338;2023-12-20T03:25:41;30.40;;;19.23;;
80852;SDS011;70270;43.434;28.338;2023-12-20T03:28:26;34.10;;;20.85;;
80852;SDS011;70270;43.434;28.338;2023-12-20T03:31:11;32.45;;;21.10;;
80852;SDS011;70270;43.434;28.338;2023-12-20T03:33:56;32.58;;;22.00;;
80852;SDS011;70270;43.434;28.338;2023-12-20T03:36:40;35.60;;;21.92;;
80852;SDS011;70270;43.434;28.338;2023-12-20T03:39:24;34.75;;;22.00;;
80852;SDS011;70270;43.434;28.338;2023-12-20T03:42:09;36.28;;;23.55;;
80852;SDS011;70270;43.434;28.338;2023-12-20T03:44:54;44.30;;;25.13;;
80852;SDS011;70270;43.434;28.338;2023-12-20T03:47:38;44.20;;;27.75;;
80852;SDS011;70270;43.434;28.338;2023-12-20T03:50:23;45.00;;;26.88;;
80852;SDS011;70270;43.434;28.338;2023-12-20T03:53:08;45.60;;;27.08;;
80852;SDS011;70270;43.434;28.338;2023-12-20T03:55:52;41.95;;;27.15;;
80852;SDS011;70270;43.434;28.338;2023-12-20T03:58:36;45.58;;;29.00;;
80852;SDS011;70270;43.434;28.338;2023-12-20T04:01:21;38.65;;;23.60;;
80852;SDS011;70270;43.434;28.338;2023-12-20T04:04:05;38.95;;;24.80;;
80852;SDS011;70270;43.434;28.338;2023-12-20T04:06:50;46.10;;;27.40;;
80852;SDS011;70270;43.434;28.338;2023-12-20T04:09:35;45.40;;;25.70;;
80852;SDS011;70270;43.434;28.338;2023-12-20T04:12:19;40.92;;;26.27;;
80852;SDS011;70270;43.434;28.338;2023-12-20T04:15:04;37.85;;;25.25;;
80852;SDS011;70270;43.434;28.338;2023-12-20T04:17:53;49.55;;;28.50;;
80852;SDS011;70270;43.434;28.338;2023-12-20T04:20:37;53.05;;;30.58;;
80852;SDS011;70270;43.434;28.338;2023-12-20T04:23:22;50.60;;;30.70;;
80852;SDS011;70270;43.434;28.338;2023-12-20T04:26:06;48.50;;;30.25;;
80852;SDS011;70270;43.434;28.338;2023-12-20T04:28:51;465.90;;;133.75;;
80852;SDS011;70270;43.434;28.338;2023-12-20T04:31:35;222.93;;;112.75;;
80852;SDS011;70270;43.434;28.338;2023-12-20T04:34:20;104.10;;;60.53;;
80852;SDS011;70270;43.434;28.338;2023-12-20T04:37:04;128.20;;;81.70;;
80852;SDS011;70270;43.434;28.338;2023-12-20T04:39:49;119.25;;;73.32;;
80852;SDS011;70270;43.434;28.338;2023-12-20T04:42:34;88.03;;;48.45;;
80852;SDS011;70270;43.434;28.338;2023-12-20T04:45:18;79.38;;;48.17;;
80852;SDS011;70270;43.434;28.338;2023-12-20T04:48:03;65.18;;;40.33;;
80852;SDS011;70270;43.434;28.338;2023-12-20T04:50:48;66.20;;;39.78;;
80852;SDS011;70270;43.434;28.338;2023-12-20T04:53:33;67.38;;;38.35;;
80852;SDS011;70270;43.434;28.338;2023-12-20T04:56:17;70.75;;;38.10;;
80852;SDS011;70270;43.434;28.338;2023-12-20T04:59:02;72.65;;;42.55;;
80852;SDS011;70270;43.434;28.338;2023-12-20T05:01:46;61.95;;;37.75;;
80852;SDS011;70270;43.434;28.338;2023-12-20T05:04:31;59.28;;;37.78;;
80852;SDS011;70270;43.434;28.338;2023-12-20T05:07:15;66.05;;;42.35;;
80852;SDS011;70270;43.434;28.338;2023-12-20T05:10:00;119.43;;;50.05;;
80852;SDS011;70270;43.434;28.338;2023-12-20T05:12:44;324.65;;;48.75;;
80852;SDS011;70270;43.434;28.338;2023-12-20T05:15:29;437.85;;;51.58;;
80852;SDS011;70270;43.434;28.338;2023-12-20T05:18:13;466.40;;;61.72;;
80852;SDS011;70270;43.434;28.338;2023-12-20T05:20:58;590.58;;;75.63;;
80852;SDS011;70270;43.434;28.338;2023-12-20T05:23:42;450.65;;;69.30;;
80852;SDS011;70270;43.434;28.338;2023-12-20T05:26:27;629.83;;;123.50;;
80852;SDS011;70270;43.434;28.338;2023-12-20T05:29:13;673.00;;;112.97;;
80852;SDS011;70270;43.434;28.338;2023-12-20T05:31:57;611.70;;;96.68;;
80852;SDS011;70270;43.434;28.338;2023-12-20T05:34:42;550.15;;;59.20;;
80852;SDS011;70270;43.434;28.338;2023-12-20T05:37:27;325.83;;;55.90;;
80852;SDS011;70270;43.434;28.338;2023-12-20T05:40:11;301.77;;;55.60;;
80852;SDS011;70270;43.434;28.338;2023-12-20T05:42:56;170.88;;;51.58;;
80852;SDS011;70270;43.434;28.338;2023-12-20T05:45:40;90.93;;;42.92;;
80852;SDS011;70270;43.434;28.338;2023-12-20T05:48:26;71.55;;;39.17;;
80852;SDS011;70270;43.434;28.338;2023-12-20T05:51:11;85.53;;;42.75;;
80852;SDS011;70270;43.434;28.338;2023-12-20T05:53:57;156.40;;;42.20;;
80852;SDS011;70270;43.434;28.338;2023-12-20T05:56:42;288.60;;;49.08;;
80852;SDS011;70270;43.434;28.338;2023-12-20T05:59:26;156.20;;;45.03;;
80852;SDS011;70270;43.434;28.338;2023-12-20T06:02:10;99.93;;;44.40;;
80852;SDS011;70270;43.434;28.338;2023-12-20T06:04:55;87.22;;;42.60;;
80852;SDS011;70270;43.434;28.338;2023-12-20T06:07:39;87.00;;;43.38;;
80852;SDS011;70270;43.434;28.338;2023-12-20T06:10:24;70.32;;;39.17;;
80852;SDS011;70270;43.434;28.338;2023-12-20T06:13:09;186.20;;;100.18;;
80852;SDS011;70270;43.434;28.338;2023-12-20T06:15:55;77.28;;;42.40;;
80852;SDS011;70270;43.434;28.338;2023-12-20T06:18:40;68.78;;;38.97;;
80852;SDS011;70270;43.434;28.338;2023-12-20T06:21:25;68.28;;;40.95;;
80852;SDS011;70270;43.434;28.338;2023-12-20T06:24:09;62.97;;;37.42;;
80852;SDS011;70270;43.434;28.338;2023-12-20T06:26:54;55.92;;;33.88;;
80852;SDS011;70270;43.434;28.338;2023-12-20T06:29:42;61.60;;;36.20;;
80852;SDS011;70270;43.434;28.338;2023-12-20T06:32:28;72.40;;;43.03;;
80852;SDS011;70270;43.434;28.338;2023-12-20T06:35:13;73.00;;;40.63;;
80852;SDS011;70270;43.434;28.338;2023-12-20T06:37:58;63.20;;;38.85;;
80852;SDS011;70270;43.434;28.338;2023-12-20T06:40:42;66.43;;;36.88;;
80852;SDS011;70270;43.434;28.338;2023-12-20T06:43:27;72.25;;;40.80;;
80852;SDS011;70270;43.434;28.338;2023-12-20T06:46:12;67.25;;;39.28;;
80852;SDS011;70270;43.434;28.338;2023-12-20T06:48:57;67.00;;;39.58;;
80852;SDS011;70270;43.434;28.338;2023-12-20T06:51:41;67.43;;;36.30;;
80852;SDS011;70270;43.434;28.338;2023-12-20T06:54:26;59.40;;;32.97;;
80852;SDS011;70270;43.434;28.338;2023-12-20T06:57:10;65.30;;;38.50;;
80852;SDS011;70270;43.434;28.338;2023-12-20T06:59:55;79.95;;;47.42;;
80852;SDS011;70270;43.434;28.338;2023-12-20T07:02:39;68.13;;;39.35;;
80852;SDS011;70270;43.434;28.338;2023-12-20T07:05:24;58.58;;;35.15;;
80852;SDS011;70270;43.434;28.338;2023-12-20T07:08:08;66.70;;;37.72;;
80852;SDS011;70270;43.434;28.338;2023-12-20T07:10:52;65.22;;;37.42;;
80852;SDS011;70270;43.434;28.338;2023-12-20T07:13:37;63.25;;;39.15;;
80852;SDS011;70270;43.434;28.338;2023-12-20T07:16:21;60.53;;;33.72;;
80852;SDS011;70270;43.434;28.338;2023-12-20T07:19:07;73.85;;;36.17;;
80852;SDS011;70270;43.434;28.338;2023-12-20T07:21:51;73.55;;;39.75;;
80852;SDS011;70270;43.434;28.338;2023-12-20T07:24:36;70.75;;;38.17;;
80852;SDS011;70270;43.434;28.338;2023-12-20T07:27:20;66.53;;;36.50;;
80852;SDS011;70270;43.434;28.338;2023-12-20T07:30:05;65.63;;;37.08;;
80852;SDS011;70270;43.434;28.338;2023-12-20T07:32:50;65.57;;;36.22;;
80852;SDS011;70270;43.434;28.338;2023-12-20T07:35:36;62.33;;;34.78;;
80852;SDS011;70270;43.434;28.338;2023-12-20T07:38:21;64.80;;;36.47;;
80852;SDS011;70270;43.434;28.338;2023-12-20T07:41:06;62.78;;;36.22;;
80852;SDS011;70270;43.434;28.338;2023-12-20T07:43:53;69.38;;;38.17;;
80852;SDS011;70270;43.434;28.338;2023-12-20T07:46:38;69.18;;;38.70;;
80852;SDS011;70270;43.434;28.338;2023-12-20T07:49:22;58.50;;;36.58;;
80852;SDS011;70270;43.434;28.338;2023-12-20T07:52:07;61.35;;;34.22;;
80852;SDS011;70270;43.434;28.338;2023-12-20T07:54:52;56.97;;;32.72;;
80852;SDS011;70270;43.434;28.338;2023-12-20T07:57:36;52.67;;;31.77;;
80852;SDS011;70270;43.434;28.338;2023-12-20T08:00:21;60.80;;;33.28;;
80852;SDS011;70270;43.434;28.338;2023-12-20T08:03:06;56.70;;;32.42;;
80852;SDS011;70270;43.434;28.338;2023-12-20T08:05:51;49.45;;;30.38;;
80852;SDS011;70270;43.434;28.338;2023-12-20T08:08:35;52.63;;;29.90;;
80852;SDS011;70270;43.434;28.338;2023-12-20T08:11:19;50.38;;;28.88;;
80852;SDS011;70270;43.434;28.338;2023-12-20T08:14:04;48.30;;;28.73;;
80852;SDS011;70270;43.434;28.338;2023-12-20T08:16:49;42.45;;;25.15;;
80852;SDS011;70270;43.434;28.338;2023-12-20T08:19:34;45.92;;;25.83;;
80852;SDS011;70270;43.434;28.338;2023-12-20T08:22:19;38.92;;;25.35;;
80852;SDS011;70270;43.434;28.338;2023-12-20T08:25:03;36.30;;;22.52;;
80852;SDS011;70270;43.434;28.338;2023-12-20T08:27:48;36.83;;;23.70;;
80852;SDS011;70270;43.434;28.338;2023-12-20T08:30:33;42.22;;;24.77;;
80852;SDS011;70270;43.434;28.338;2023-12-20T08:33:17;38.17;;;22.10;;
80852;SDS011;70270;43.434;28.338;2023-12-20T08:36:02;38.25;;;25.05;;
80852;SDS011;70270;43.434;28.338;2023-12-20T08:38:49;34.63;;;22.48;;
80852;SDS011;70270;43.434;28.338;2023-12-20T08:41:34;36.85;;;23.80;;
80852;SDS011;70270;43.434;28.338;2023-12-20T08:44:19;27.70;;;18.92;;
80852;SDS011;70270;43.434;28.338;2023-12-20T08:47:05;31.67;;;20.08;;
80852;SDS011;70270;43.434;28.338;2023-12-20T08:49:49;30.13;;;19.25;;
80852;SDS011;70270;43.434;28.338;2023-12-20T08:52:34;31.88;;;19.45;;
80852;SDS011;70270;43.434;28.338;2023-12-20T08:55:19;28.25;;;17.02;;
80852;SDS011;70270;43.434;28.338;2023-12-20T08:58:03;32.00;;;19.85;;
80852;SDS011;70270;43.434;28.338;2023-12-20T09:00:51;26.92;;;16.50;;
80852;SDS011;70270;43.434;28.338;2023-12-20T09:03:35;27.75;;;17.63;;
80852;SDS011;70270;43.434;28.338;2023-12-20T09:06:19;27.67;;;18.00;;
80852;SDS011;70270;43.434;28.338;2023-12-20T09:09:04;31.20;;;19.60;;
80852;SDS011;70270;43.434;28.338;2023-12-20T09:11:49;29.25;;;18.73;;
80852;SDS011;70270;43.434;28.338;2023-12-20T09:14:35;40.05;;;22.70;;
80852;SDS011;70270;43.434;28.338;2023-12-20T09:17:19;30.67;;;18.88;;
80852;SDS011;70270;43.434;28.338;2023-12-20T09:20:06;32.10;;;20.20;;
80852;SDS011;70270;43.434;28.338;2023-12-20T09:22:52;37.60;;;21.70;;
80852;SDS011;70270;43.434;28.338;2023-12-20T09:25:36;52.05;;;30.15;;
80852;SDS011;70270;43.434;28.338;2023-12-20T09:28:20;36.55;;;25.20;;
80852;SDS011;70270;43.434;28.338;2023-12-20T09:31:05;39.05;;;23.60;;
80852;SDS011;70270;43.434;28.338;2023-12-20T09:33:50;35.67;;;23.02;;
80852;SDS011;70270;43.434;28.338;2023-12-20T09:36:35;40.53;;;23.35;;
80852;SDS011;70270;43.434;28.338;2023-12-20T09:39:20;35.08;;;22.02;;
80852;SDS011;70270;43.434;28.338;2023-12-20T09:42:06;38.30;;;20.75;;
80852;SDS011;70270;43.434;28.338;2023-12-20T09:44:51;31.80;;;19.23;;
80852;SDS011;70270;43.434;28.338;2023-12-20T09:47:35;31.80;;;18.65;;
80852;SDS011;70270;43.434;28.338;2023-12-20T09:50:20;32.88;;;19.40;;
80852;SDS011;70270;43.434;28.338;2023-12-20T09:53:07;32.38;;;18.98;;
80852;SDS011;70270;43.434;28.338;2023-12-20T09:55:53;30.20;;;17.67;;
80852;SDS011;70270;43.434;28.338;2023-12-20T09:58:38;25.98;;;18.35;;
80852;SDS011;70270;43.434;28.338;2023-12-20T10:01:26;21.77;;;15.75;;
80852;SDS011;70270;43.434;28.338;2023-12-20T10:04:13;23.52;;;16.27;;
80852;SDS011;70270;43.434;28.338;2023-12-20T10:07:01;29.20;;;15.55;;
80852;SDS011;70270;43.434;28.338;2023-12-20T10:09:51;24.80;;;16.15;;
80852;SDS011;70270;43.434;28.338;2023-12-20T10:12:39;24.60;;;15.30;;
80852;SDS011;70270;43.434;28.338;2023-12-20T10:15:23;27.88;;;16.90;;
80852;SDS011;70270;43.434;28.338;2023-12-20T10:18:08;26.67;;;14.70;;
80852;SDS011;70270;43.434;28.338;2023-12-20T10:20:52;24.42;;;15.90;;
80852;SDS011;70270;43.434;28.338;2023-12-20T10:23:37;28.13;;;16.45;;
80852;SDS011;70270;43.434;28.338;2023-12-20T10:26:24;25.38;;;14.32;;
80852;SDS011;70270;43.434;28.338;2023-12-20T10:29:10;22.27;;;14.65;;
80852;SDS011;70270;43.434;28.338;2023-12-20T10:31:55;27.98;;;17.20;;
80852;SDS011;70270;43.434;28.338;2023-12-20T10:34:41;28.40;;;13.38;;
80852;SDS011;70270;43.434;28.338;2023-12-20T10:37:26;19.48;;;12.93;;
80852;SDS011;70270;43.434;28.338;2023-12-20T10:40:10;17.83;;;11.80;;
80852;SDS011;70270;43.434;28.338;2023-12-20T10:42:57;21.23;;;13.23;;
80852;SDS011;70270;43.434;28.338;2023-12-20T10:45:43;28.00;;;16.17;;
80852;SDS011;70270;43.434;28.338;2023-12-20T10:48:28;18.70;;;12.40;;
80852;SDS011;70270;43.434;28.338;2023-12-20T10:51:15;21.55;;;13.35;;
80852;SDS011;70270;43.434;28.338;2023-12-20T10:54:02;20.25;;;12.75;;
80852;SDS011;70270;43.434;28.338;2023-12-20T10:56:47;24.90;;;13.25;;
80852;SDS011;70270;43.434;28.338;2023-12-20T10:59:37;21.95;;;13.00;;
80852;SDS011;70270;43.434;28.338;2023-12-20T11:02:22;24.17;;;13.88;;
80852;SDS011;70270;43.434;28.338;2023-12-20T11:08:17;17.10;;;12.02;;
80852;SDS011;70270;43.434;28.338;2023-12-20T11:11:18;20.58;;;12.85;;
80852;SDS011;70270;43.434;28.338;2023-12-20T11:14:34;19.58;;;12.45;;
80852;SDS011;70270;43.434;28.338;2023-12-20T11:17:40;21.58;;;12.10;;
80852;SDS011;70270;43.434;28.338;2023-12-20T11:20:35;16.83;;;11.38;;
80852;SDS011;70270;43.434;28.338;2023-12-20T11:23:21;19.55;;;11.48;;
80852;SDS011;70270;43.434;28.338;2023-12-20T11:26:06;19.15;;;11.55;;
80852;SDS011;70270;43.434;28.338;2023-12-20T11:28:51;14.35;;;10.20;;
80852;SDS011;70270;43.434;28.338;2023-12-20T11:31:39;17.33;;;12.27;;
80852;SDS011;70270;43.434;28.338;2023-12-20T11:34:26;17.65;;;10.90;;
80852;SDS011;70270;43.434;28.338;2023-12-20T11:37:12;18.85;;;11.35;;
80852;SDS011;70270;43.434;28.338;2023-12-20T11:40:07;21.20;;;11.60;;
80852;SDS011;70270;43.434;28.338;2023-12-20T11:42:55;18.25;;;11.77;;
80852;SDS011;70270;43.434;28.338;2023-12-20T11:45:47;22.40;;;12.90;;
80852;SDS011;70270;43.434;28.338;2023-12-20T11:48:37;31.33;;;18.25;;
80852;SDS011;70270;43.434;28.338;2023-12-20T11:51:23;36.05;;;18.20;;
80852;SDS011;70270;43.434;28.338;2023-12-20T11:54:08;26.48;;;14.23;;
80852;SDS011;70270;43.434;28.338;2023-12-20T11:56:52;24.30;;;13.48;;
80852;SDS011;70270;43.434;28.338;2023-12-20T11:59:37;20.75;;;12.35;;
80852;SDS011;70270;43.434;28.338;2023-12-20T12:02:21;16.00;;;9.90;;
80852;SDS011;70270;43.434;28.338;2023-12-20T12:05:07;17.92;;;11.85;;
80852;SDS011;70270;43.434;28.338;2023-12-20T12:07:52;21.75;;;11.50;;
80852;SDS011;70270;43.434;28.338;2023-12-20T12:10:37;16.40;;;8.88;;
80852;SDS011;70270;43.434;28.338;2023-12-20T12:13:22;16.63;;;9.88;;
80852;SDS011;70270;43.434;28.338;2023-12-20T12:16:06;17.38;;;9.60;;
80852;SDS011;70270;43.434;28.338;2023-12-20T12:18:57;15.65;;;9.27;;
80852;SDS011;70270;43.434;28.338;2023-12-20T12:21:42;17.92;;;10.27;;
80852;SDS011;70270;43.434;28.338;2023-12-20T12:24:27;11.45;;;7.55;;
80852;SDS011;70270;43.434;28.338;2023-12-20T12:27:12;13.80;;;8.25;;
80852;SDS011;70270;43.434;28.338;2023-12-20T12:30:04;14.10;;;8.10;;
80852;SDS011;70270;43.434;28.338;2023-12-20T12:32:53;15.02;;;7.93;;
80852;SDS011;70270;43.434;28.338;2023-12-20T12:41:08;13.40;;;8.07;;
80852;SDS011;70270;43.434;28.338;2023-12-20T12:43:54;14.43;;;7.85;;
80852;SDS011;70270;43.434;28.338;2023-12-20T12:46:38;15.82;;;8.00;;
80852;SDS011;70270;43.434;28.338;2023-12-20T12:49:22;13.52;;;8.43;;
80852;SDS011;70270;43.434;28.338;2023-12-20T12:52:07;18.75;;;8.73;;
80852;SDS011;70270;43.434;28.338;2023-12-20T12:54:52;13.65;;;8.23;;
80852;SDS011;70270;43.434;28.338;2023-12-20T12:57:37;16.58;;;9.48;;
80852;SDS011;70270;43.434;28.338;2023-12-20T13:00:22;15.25;;;9.30;;
80852;SDS011;70270;43.434;28.338;2023-12-20T13:03:07;17.33;;;9.40;;
80852;SDS011;70270;43.434;28.338;2023-12-20T13:05:54;62.42;;;23.35;;
80852;SDS011;70270;43.434;28.338;2023-12-20T13:08:38;17.90;;;11.32;;
80852;SDS011;70270;43.434;28.338;2023-12-20T13:11:23;15.43;;;8.38;;
80852;SDS011;70270;43.434;28.338;2023-12-20T13:14:09;13.35;;;8.57;;
80852;SDS011;70270;43.434;28.338;2023-12-20T13:16:58;15.65;;;9.20;;
80852;SDS011;70270;43.434;28.338;2023-12-20T13:19:42;15.82;;;9.05;;
80852;SDS011;70270;43.434;28.338;2023-12-20T13:22:27;13.85;;;9.18;;
80852;SDS011;70270;43.434;28.338;2023-12-20T13:25:12;16.40;;;8.60;;
80852;SDS011;70270;43.434;28.338;2023-12-20T13:27:56;16.77;;;9.50;;
80852;SDS011;70270;43.434;28.338;2023-12-20T13:30:41;18.05;;;9.80;;
80852;SDS011;70270;43.434;28.338;2023-12-20T13:33:27;17.58;;;10.02;;
80852;SDS011;70270;43.434;28.338;2023-12-20T13:36:11;20.30;;;11.40;;
80852;SDS011;70270;43.434;28.338;2023-12-20T13:38:57;23.25;;;11.65;;
80852;SDS011;70270;43.434;28.338;2023-12-20T13:41:41;20.45;;;10.80;;
80852;SDS011;70270;43.434;28.338;2023-12-20T13:44:25;20.35;;;10.80;;
80852;SDS011;70270;43.434;28.338;2023-12-20T13:47:10;22.27;;;10.50;;
80852;SDS011;70270;43.434;28.338;2023-12-20T13:49:54;17.33;;;9.05;;
80852;SDS011;70270;43.434;28.338;2023-12-20T13:52:39;23.48;;;11.85;;
80852;SDS011;70270;43.434;28.338;2023-12-20T13:55:24;24.58;;;12.00;;
80852;SDS011;70270;43.434;28.338;2023-12-20T13:58:09;20.73;;;12.20;;
80852;SDS011;70270;43.434;28.338;2023-12-20T14:00:56;20.55;;;12.13;;
80852;SDS011;70270;43.434;28.338;2023-12-20T14:03:40;19.60;;;11.95;;
80852;SDS011;70270;43.434;28.338;2023-12-20T14:06:25;30.05;;;13.52;;
80852;SDS011;70270;43.434;28.338;2023-12-20T14:09:09;52.70;;;23.35;;
80852;SDS011;70270;43.434;28.338;2023-12-20T14:14:40;23.60;;;14.35;;
80852;SDS011;70270;43.434;28.338;2023-12-20T14:17:25;24.33;;;13.45;;
80852;SDS011;70270;43.434;28.338;2023-12-20T14:20:10;32.58;;;16.67;;
80852;SDS011;70270;43.434;28.338;2023-12-20T14:22:57;30.52;;;15.05;;
80852;SDS011;70270;43.434;28.338;2023-12-20T14:25:41;24.13;;;14.85;;
80852;SDS011;70270;43.434;28.338;2023-12-20T14:28:26;27.70;;;15.07;;
80852;SDS011;70270;43.434;28.338;2023-12-20T14:31:11;32.10;;;16.65;;
80852;SDS011;70270;43.434;28.338;2023-12-20T14:33:56;34.97;;;16.75;;
80852;SDS011;70270;43.434;28.338;2023-12-20T14:36:42;36.42;;;16.70;;
80852;SDS011;70270;43.434;28.338;2023-12-20T14:39:26;38.58;;;19.10;;
80852;SDS011;70270;43.434;28.338;2023-12-20T14:42:11;28.05;;;17.42;;
80852;SDS011;70270;43.434;28.338;2023-12-20T14:44:57;39.10;;;19.23;;
80852;SDS011;70270;43.434;28.338;2023-12-20T14:47:44;34.47;;;19.05;;
80852;SDS011;70270;43.434;28.338;2023-12-20T14:50:28;42.13;;;19.25;;
80852;SDS011;70270;43.434;28.338;2023-12-20T14:53:13;38.92;;;20.02;;
80852;SDS011;70270;43.434;28.338;2023-12-20T14:55:59;37.33;;;19.88;;
80852;SDS011;70270;43.434;28.338;2023-12-20T14:58:43;41.97;;;22.45;;
80852;SDS011;70270;43.434;28.338;2023-12-20T15:01:28;35.55;;;23.25;;
80852;SDS011;70270;43.434;28.338;2023-12-20T15:04:12;33.40;;;16.88;;
80852;SDS011;70270;43.434;28.338;2023-12-20T15:06:58;40.17;;;19.90;;
80852;SDS011;70270;43.434;28.338;2023-12-20T15:09:42;28.50;;;19.25;;
80852;SDS011;70270;43.434;28.338;2023-12-20T15:12:30;36.53;;;21.25;;
80852;SDS011;70270;43.434;28.338;2023-12-20T15:15:14;38.25;;;24.10;;
80852;SDS011;70270;43.434;28.338;2023-12-20T15:17:59;48.15;;;24.42;;
80852;SDS011;70270;43.434;28.338;2023-12-20T15:20:44;42.72;;;24.75;;
80852;SDS011;70270;43.434;28.338;2023-12-20T15:23:28;51.15;;;29.40;;
80852;SDS011;70270;43.434;28.338;2023-12-20T15:26:14;51.70;;;28.80;;
80852;SDS011;70270;43.434;28.338;2023-12-20T15:28:59;36.33;;;20.58;;
80852;SDS011;70270;43.434;28.338;2023-12-20T15:31:46;46.65;;;24.15;;
80852;SDS011;70270;43.434;28.338;2023-12-20T15:34:32;34.63;;;21.20;;
80852;SDS011;70270;43.434;28.338;2023-12-20T15:37:16;47.30;;;25.48;;
80852;SDS011;70270;43.434;28.338;2023-12-20T15:40:01;48.17;;;27.50;;
80852;SDS011;70270;43.434;28.338;2023-12-20T15:42:45;50.30;;;27.90;;
80852;SDS011;70270;43.434;28.338;2023-12-20T15:45:30;49.38;;;30.45;;
80852;SDS011;70270;43.434;28.338;2023-12-20T15:48:15;56.30;;;32.15;;
80852;SDS011;70270;43.434;28.338;2023-12-20T15:51:05;47.28;;;25.58;;
80852;SDS011;70270;43.434;28.338;2023-12-20T15:53:51;57.38;;;30.27;;
80852;SDS011;70270;43.434;28.338;2023-12-20T15:56:35;51.13;;;26.95;;
80852;SDS011;70270;43.434;28.338;2023-12-20T15:59:20;38.75;;;22.52;;
80852;SDS011;70270;43.434;28.338;2023-12-20T16:02:04;36.58;;;22.65;;
80852;SDS011;70270;43.434;28.338;2023-12-20T16:04:49;39.30;;;22.83;;